Terminal Aerodrome Forecast
Issued by NWS Greer, SC

Home | Current Version | Previous Version | Text Only | Print | Product List | Glossary On
Versions: 1 2 3 4 5 6 7 8 9 10 11 12 13 14 15 16 17 18
647
FTUS42 KGSP 222001 AAA
TAFGSP
TAF AMD
KGSP 222001Z 2220/2318 01006KT P6SM FEW011 FEW045 BKN070
     FM222100 06005KT P6SM SCT025 BKN150
     FM230300 03004KT 2SM BR OVC003
     FM231400 06004KT 5SM BR BKN003
     FM231700 10004KT P6SM BKN015=

USA.gov is the U.S. government's official web portal to all federal, state and local government web resources and services.